createdAt,value
2019-04-05T00:00:03.232Z,99.9
2019-04-05T00:05:05.779Z,99.9
2019-04-05T00:10:05.751Z,99.9
2019-04-05T00:15:16.209Z,99.9
2019-04-05T00:20:03.350Z,99.9
2019-04-05T00:25:05.888Z,99.9
2019-04-05T00:30:02.830Z,99.9
2019-04-05T00:35:02.826Z,99.9
2019-04-05T00:40:20.380Z,99.9
2019-04-05T00:45:02.485Z,99.9
2019-04-05T00:50:07.621Z,99.9
2019-04-05T00:55:02.597Z,99.9
2019-04-05T01:00:05.196Z,99.9
2019-04-05T01:05:07.564Z,99.9
2019-04-05T01:10:05.621Z,99.9
2019-04-05T01:15:08.118Z,99.9
2019-04-05T01:20:05.724Z,99.9
2019-04-05T01:25:03.134Z,99.9
2019-04-05T01:30:18.264Z,99.9
2019-04-05T01:35:23.304Z,99.9
2019-04-05T01:40:17.891Z,99.9
2019-04-05T01:45:22.979Z,99.9
2019-04-05T01:50:10.566Z,99.9
2019-04-05T01:55:05.516Z,99.9
2019-04-05T02:00:05.011Z,99.9
2019-04-05T02:05:05.029Z,99.9
2019-04-05T02:10:26.258Z,99.9
2019-04-05T02:15:13.373Z,99.9
2019-04-05T02:20:03.432Z,99.9
2019-04-05T02:25:03.362Z,99.9
2019-04-05T02:30:03.354Z,99.9
2019-04-05T02:35:39.334Z,99.9
2019-04-05T02:40:05.464Z,99.9
2019-04-05T02:45:07.899Z,99.9
2019-04-05T02:50:05.358Z,99.9
2019-04-05T02:55:15.606Z,99.9
2019-04-05T03:00:05.178Z,99.9
2019-04-05T03:05:07.599Z,99.9
2019-04-05T03:10:05.781Z,99.9
2019-04-05T03:15:02.751Z,99.9
2019-04-05T03:20:05.381Z,99.9
2019-04-05T03:25:18.086Z,99.9
2019-04-05T03:30:08.224Z,99.9
2019-04-05T03:35:10.753Z,99.9
2019-04-05T03:40:08.235Z,99.9
2019-04-05T03:45:10.581Z,99.9
2019-04-05T03:50:12.768Z,99.9
2019-04-05T03:55:05.220Z,99.9
2019-04-05T04:00:03.328Z,99.9
2019-04-05T04:05:08.337Z,99.9
2019-04-05T04:10:18.060Z,99.9
2019-04-05T04:15:05.361Z,99.9
2019-04-05T04:20:12.690Z,99.9
2019-04-05T04:25:05.183Z,99.9
2019-04-05T04:30:03.147Z,99.9
2019-04-05T04:35:03.103Z,99.9
2019-04-05T04:40:02.588Z,99.9
2019-04-05T04:45:13.027Z,99.9
2019-04-05T04:50:03.192Z,99.9
2019-04-05T04:55:10.675Z,99.9
2019-04-05T05:00:10.205Z,99.9
2019-04-05T05:05:02.555Z,99.9
2019-04-05T05:10:03.766Z,99.9
2019-04-05T05:15:18.125Z,99.9
2019-04-05T05:20:03.307Z,99.9
2019-04-05T05:25:13.319Z,99.9
2019-04-05T05:30:36.212Z,99.9
2019-04-05T05:35:13.288Z,99.9
2019-04-05T05:40:07.900Z,99.9
2019-04-05T05:45:02.633Z,99.9
2019-04-05T05:50:02.626Z,99.9
2019-04-05T05:55:05.097Z,99.9
2019-04-05T06:00:03.180Z,99.9
2019-04-05T06:05:03.270Z,99.9
2019-04-05T06:10:02.711Z,99.9
2019-04-05T06:15:05.098Z,99.9
2019-04-05T06:20:08.210Z,99.9
2019-04-05T06:25:18.392Z,99.9
2019-04-05T06:30:23.550Z,99.9
2019-04-05T06:35:15.887Z,99.9
2019-04-05T06:40:03.358Z,99.9
2019-04-05T06:45:08.422Z,99.9
2019-04-05T06:50:02.642Z,99.9
2019-04-05T06:55:22.677Z,99.9
2019-04-05T07:00:03.182Z,99.9
2019-04-05T07:05:08.174Z,99.9
2019-04-05T07:10:05.132Z,99.9
2019-04-05T07:15:18.367Z,99.9
2019-04-05T07:20:27.968Z,99.9
2019-04-05T07:25:17.795Z,99.9
2019-04-05T07:30:03.467Z,99.9
2019-04-05T07:35:08.456Z,99.9
2019-04-05T07:40:02.869Z,99.9
2019-04-05T07:45:07.866Z,99.9
2019-04-05T07:50:05.351Z,99.9
2019-04-05T07:55:15.466Z,99.9
2019-04-05T08:00:06.195Z,99.9
2019-04-05T08:05:08.434Z,99.9
2019-04-05T08:10:12.929Z,99.9
2019-04-05T08:15:07.882Z,99.9
2019-04-05T08:20:03.056Z,99.9
2019-04-05T08:25:02.862Z,99.9
2019-04-05T08:30:02.868Z,99.9
2019-04-05T08:35:02.785Z,99.9
2019-04-05T08:40:08.301Z,99.9
2019-04-05T08:45:05.663Z,99.9
2019-04-05T08:50:02.682Z,99.9
2019-04-05T08:55:05.207Z,99.9
2019-04-05T09:00:05.723Z,99.9
2019-04-05T09:05:03.085Z,99.9
2019-04-05T09:10:07.702Z,99.9
2019-04-05T09:15:05.196Z,99.9
2019-04-05T09:20:03.341Z,99.9
2019-04-05T09:25:05.735Z,99.9
2019-04-05T09:30:05.396Z,99.9
2019-04-05T09:35:05.293Z,99.9
2019-04-05T09:40:05.285Z,99.9
2019-04-05T09:45:05.730Z,99.9
2019-04-05T09:50:02.691Z,99.9
2019-04-05T09:55:08.069Z,99.9
2019-04-05T10:00:03.048Z,99.9
2019-04-05T10:05:15.719Z,99.9
2019-04-05T10:10:03.204Z,99.9
2019-04-05T10:15:08.248Z,99.9
2019-04-05T10:20:05.943Z,99.9
2019-04-05T10:25:28.531Z,99.9
2019-04-05T10:30:02.551Z,99.9
2019-04-05T10:35:05.157Z,99.9
2019-04-05T10:40:03.020Z,99.9
2019-04-05T10:45:05.422Z,99.9
2019-04-05T10:50:18.603Z,99.9
2019-04-05T10:55:10.986Z,99.9
2019-04-05T11:00:02.899Z,99.9
2019-04-05T11:05:15.556Z,99.9
2019-04-05T11:10:03.300Z,99.9
2019-04-05T11:15:05.777Z,99.9
2019-04-05T11:20:21.678Z,99.9
2019-04-05T11:25:08.450Z,99.9
2019-04-05T11:30:23.673Z,99.9
2019-04-05T11:35:10.980Z,99.9
2019-04-05T11:40:11.085Z,99.9
2019-04-05T11:45:07.558Z,99.9
2019-04-05T11:50:07.623Z,99.9
2019-04-05T11:55:05.029Z,99.9
2019-04-05T12:00:08.011Z,99.9
2019-04-05T12:05:05.432Z,99.9
2019-04-05T12:10:02.867Z,99.9
2019-04-05T12:15:26.087Z,99.9
2019-04-05T12:20:05.950Z,99.9
2019-04-05T12:25:10.960Z,99.9
2019-04-05T12:30:12.886Z,99.9
2019-04-05T12:35:02.875Z,99.9
2019-04-05T12:40:09.506Z,99.9
2019-04-05T12:45:07.932Z,99.9
2019-04-05T12:50:02.698Z,99.9
2019-04-05T12:55:02.569Z,99.9
2019-04-05T13:00:03.375Z,99.9
2019-04-05T13:05:02.837Z,99.9
2019-04-05T13:10:03.208Z,99.9
2019-04-05T13:15:16.934Z,99.9
2019-04-05T13:20:05.922Z,99.9
2019-04-05T13:25:02.586Z,99.9
2019-04-05T13:30:03.414Z,99.9
2019-04-05T13:35:02.925Z,99.9
2019-04-05T13:40:02.609Z,99.9
2019-04-05T13:45:05.315Z,99.9
2019-04-05T13:50:03.403Z,99.9
2019-04-05T13:55:02.823Z,99.9
2019-04-05T14:00:03.064Z,98.7
2019-04-05T14:05:02.607Z,91.4
2019-04-05T14:10:03.265Z,86.9
2019-04-05T14:15:02.471Z,84.5
2019-04-05T14:20:02.661Z,77.8
2019-04-05T14:25:03.479Z,72.4
2019-04-05T14:30:05.147Z,67.6
2019-04-05T14:35:02.597Z,67.7
2019-04-05T14:40:05.838Z,72
2019-04-05T14:45:02.480Z,72.4
2019-04-05T14:50:05.358Z,75.5
2019-04-05T14:55:02.951Z,75.5
2019-04-05T15:00:03.204Z,70.5
2019-04-05T15:05:02.568Z,68.6
2019-04-05T15:10:04.122Z,65.9
2019-04-05T15:15:02.473Z,62.3
2019-04-05T15:20:05.709Z,66.2
2019-04-05T15:25:07.852Z,63.4
2019-04-05T15:30:02.855Z,63.5
2019-04-05T15:35:02.811Z,66.7
2019-04-05T15:40:03.527Z,75.2
2019-04-05T15:45:05.304Z,85.7
2019-04-05T15:50:03.492Z,85.8
2019-04-05T15:55:04.661Z,96.3
2019-04-05T16:00:05.859Z,99.9
2019-04-05T16:05:03.284Z,99.9
2019-04-05T16:10:02.967Z,99.9
2019-04-05T16:15:03.159Z,99.9
2019-04-05T16:20:03.727Z,99.9
2019-04-05T16:25:04.129Z,99.9
2019-04-05T16:30:03.242Z,99.9
2019-04-05T16:35:08.496Z,99.9
2019-04-05T16:40:03.230Z,99.9
2019-04-05T16:45:03.443Z,99.9
2019-04-05T16:50:02.614Z,99.9
2019-04-05T16:55:05.115Z,99.9
2019-04-05T17:00:03.235Z,99.9
2019-04-05T17:05:03.420Z,99.9
2019-04-05T17:10:05.545Z,99.9
2019-04-05T17:15:03.139Z,99.9
2019-04-05T17:20:05.962Z,99.9
2019-04-05T17:25:02.570Z,99.9
2019-04-05T17:30:02.728Z,99.9
2019-04-05T17:35:02.933Z,99.9
2019-04-05T17:40:02.638Z,99.9
2019-04-05T17:45:02.745Z,99.9
2019-04-05T17:50:02.836Z,99.9
2019-04-05T17:55:02.961Z,99.9
2019-04-05T18:00:03.103Z,99.9
2019-04-05T18:05:03.143Z,99.9
2019-04-05T18:10:02.830Z,99.9
2019-04-05T18:15:03.035Z,99.9
2019-04-05T18:20:03.326Z,99.9
2019-04-05T18:25:03.506Z,99.9
2019-04-05T18:30:02.778Z,99.9
2019-04-05T18:35:07.860Z,99.9
2019-04-05T18:40:03.515Z,99.9
2019-04-05T18:45:02.694Z,99.9
2019-04-05T18:50:03.692Z,99.9
2019-04-05T18:55:02.925Z,99.9
2019-04-05T19:00:03.102Z,99.9
2019-04-05T19:05:03.280Z,99.9
2019-04-05T19:10:02.918Z,99.9
2019-04-05T19:15:03.126Z,99.9
2019-04-05T19:20:03.494Z,99.9
2019-04-05T19:25:05.251Z,99.9
2019-04-05T19:50:03.406Z,99.9
2019-04-05T19:55:02.565Z,99.9
2019-04-05T20:00:02.744Z,99.9
2019-04-05T20:05:10.552Z,99.9
2019-04-05T20:10:03.228Z,99.9
2019-04-05T20:15:03.443Z,99.9
2019-04-05T20:20:02.694Z,99.9
2019-04-05T20:25:02.879Z,99.9
2019-04-05T20:30:03.081Z,99.9
2019-04-05T20:35:08.307Z,99.9
2019-04-05T20:40:02.968Z,99.9
2019-04-05T20:45:03.130Z,99.9
2019-04-05T20:50:03.298Z,99.9
2019-04-05T20:55:02.635Z,99.9
2019-04-05T21:00:02.855Z,99.9
2019-04-05T21:05:03.003Z,99.9
2019-04-05T21:10:02.667Z,99.9
2019-04-05T21:15:05.314Z,99.9
2019-04-05T21:20:08.574Z,99.9
2019-04-05T21:25:02.561Z,99.9
2019-04-05T21:30:02.738Z,99.9
2019-04-05T21:35:02.898Z,99.9
2019-04-05T21:40:02.583Z,99.9
2019-04-05T21:45:02.742Z,99.9
2019-04-05T21:50:02.974Z,99.9
2019-04-05T21:55:05.512Z,99.9
2019-04-05T22:00:02.723Z,99.9
2019-04-05T22:05:02.691Z,99.9
2019-04-05T22:10:03.326Z,99.9
2019-04-05T22:15:02.493Z,99.9
2019-04-05T22:20:02.736Z,99.9
2019-04-05T22:25:02.908Z,99.9
2019-04-05T22:30:03.116Z,99.9
2019-04-05T22:35:03.386Z,99.9
2019-04-05T22:40:02.965Z,99.9
2019-04-05T22:45:03.121Z,99.9
2019-04-05T22:50:08.275Z,99.9
2019-04-05T22:55:12.111Z,99.9
2019-04-05T23:00:03.377Z,99.9
2019-04-05T23:05:02.602Z,99.9
2019-04-05T23:10:03.249Z,99.9
2019-04-05T23:15:03.483Z,99.9
2019-04-05T23:20:02.675Z,99.9
2019-04-05T23:25:02.891Z,99.9
2019-04-05T23:30:03.057Z,99.9
2019-04-05T23:35:05.636Z,99.9
2019-04-05T23:40:03.324Z,99.9
2019-04-05T23:45:03.445Z,99.9
2019-04-05T23:50:02.607Z,99.9
2019-04-05T23:55:02.786Z,99.9
